createdAt,value
2023-01-25T00:00:00.905Z,3.62
2023-01-25T00:02:32.662Z,3.63
2023-01-25T00:05:04.936Z,3.62
2023-01-25T00:07:36.769Z,3.61
2023-01-25T00:10:09.116Z,3.65
2023-01-25T00:12:40.829Z,3.68
2023-01-25T00:15:12.610Z,3.68
2023-01-25T00:17:44.353Z,3.60
2023-01-25T00:20:16.607Z,3.54
2023-01-25T00:22:48.291Z,3.55
2023-01-25T00:25:19.934Z,3.52
2023-01-25T00:27:52.435Z,3.54
2023-01-25T00:30:24.140Z,3.57
2023-01-25T00:33:29.473Z,3.61
2023-01-25T00:36:01.743Z,3.63
2023-01-25T00:38:38.591Z,3.60
2023-01-25T00:41:10.419Z,3.62
2023-01-25T00:43:42.458Z,3.52
2023-01-25T00:46:17.184Z,3.54
2023-01-25T00:48:49.495Z,3.55
2023-01-25T00:51:22.706Z,3.56
2023-01-25T00:53:54.614Z,3.61
2023-01-25T00:56:29.060Z,3.53
2023-01-25T00:59:00.721Z,3.47
2023-01-25T01:01:34.124Z,3.47
2023-01-25T01:04:06.671Z,3.46
2023-01-25T01:06:39.933Z,3.46
2023-01-25T01:09:14.832Z,3.45
2023-01-25T01:11:46.486Z,3.44
2023-01-25T01:14:18.717Z,3.47
2023-01-25T01:16:50.550Z,3.50
2023-01-25T01:19:23.626Z,3.53
2023-01-25T01:21:55.915Z,3.51
2023-01-25T01:24:27.689Z,3.51
2023-01-25T01:26:59.382Z,3.55
2023-01-25T01:29:32.246Z,3.51
2023-01-25T01:32:05.084Z,3.51
2023-01-25T01:34:36.945Z,3.49
2023-01-25T01:37:08.668Z,3.49
2023-01-25T01:39:40.551Z,3.54
2023-01-25T01:42:12.475Z,3.58
2023-01-25T01:44:53.315Z,3.62
2023-01-25T01:47:31.694Z,3.64
2023-01-25T01:50:28.866Z,3.62
2023-01-25T01:53:00.689Z,3.58
2023-01-25T01:55:32.622Z,3.51
2023-01-25T01:58:06.507Z,3.47
2023-01-25T02:00:40.701Z,3.39
2023-01-25T02:03:14.868Z,3.42
2023-01-25T02:06:04.842Z,3.49
2023-01-25T02:08:40.814Z,3.55
2023-01-25T02:11:13.748Z,3.59
2023-01-25T02:13:45.679Z,3.63
2023-01-25T02:16:26.136Z,3.61
2023-01-25T02:19:02.142Z,3.53
2023-01-25T02:21:43.213Z,3.48
2023-01-25T02:24:28.043Z,3.43
2023-01-25T02:27:01.221Z,3.45
2023-01-25T02:29:33.392Z,3.44
2023-01-25T02:32:06.575Z,3.44
2023-01-25T02:34:38.304Z,3.43
2023-01-25T02:37:14.520Z,3.46
2023-01-25T02:39:46.381Z,3.43
2023-01-25T02:42:18.313Z,3.48
2023-01-25T02:44:51.345Z,3.55
2023-01-25T02:47:23.026Z,3.55
2023-01-25T02:49:54.691Z,3.55
2023-01-25T02:52:26.778Z,3.60
2023-01-25T02:55:00.752Z,3.62
2023-01-25T02:57:32.961Z,3.64
2023-01-25T03:00:06.603Z,3.69
2023-01-25T03:02:41.559Z,3.70
2023-01-25T03:05:13.264Z,3.71
2023-01-25T03:07:44.980Z,3.60
2023-01-25T03:10:16.790Z,3.56
2023-01-25T03:12:48.591Z,3.50
2023-01-25T03:15:23.384Z,3.41
2023-01-25T03:17:56.745Z,3.35
2023-01-25T03:20:28.596Z,3.43
2023-01-25T03:23:00.273Z,3.49
2023-01-25T03:25:32.735Z,3.47
2023-01-25T03:28:13.648Z,3.49
2023-01-25T03:30:49.941Z,3.39
2023-01-25T03:33:22.271Z,3.39
2023-01-25T03:35:55.095Z,3.43
2023-01-25T03:38:27.600Z,3.39
2023-01-25T03:40:59.604Z,3.38
2023-01-25T03:43:32.529Z,3.41
2023-01-25T03:46:08.118Z,3.47
2023-01-25T03:48:39.801Z,3.50
2023-01-25T03:51:11.641Z,3.51
2023-01-25T03:53:46.674Z,3.45
2023-01-25T03:56:21.299Z,3.37
2023-01-25T03:59:06.837Z,3.31
2023-01-25T04:01:40.059Z,3.21
2023-01-25T04:04:12.703Z,3.17
2023-01-25T04:06:46.484Z,3.08
2023-01-25T04:09:21.703Z,3.08
2023-01-25T04:11:56.852Z,3.01
2023-01-25T04:14:43.658Z,3.01
2023-01-25T04:17:17.568Z,3.05
2023-01-25T04:19:57.030Z,3.09
2023-01-25T04:22:33.626Z,3.19
2023-01-25T04:25:06.340Z,3.21
2023-01-25T04:27:38.769Z,3.25
2023-01-25T04:30:18.817Z,3.33
2023-01-25T04:32:53.047Z,3.38
2023-01-25T04:35:35.070Z,3.39
2023-01-25T04:38:10.755Z,3.38
2023-01-25T04:40:46.196Z,3.39
2023-01-25T04:43:19.170Z,3.25
2023-01-25T04:45:56.791Z,3.14
2023-01-25T04:48:34.294Z,3.16
2023-01-25T04:51:09.920Z,3.22
2023-01-25T04:53:41.655Z,3.21
2023-01-25T04:56:15.162Z,3.23
2023-01-25T04:58:55.211Z,3.25
2023-01-25T05:01:27.114Z,3.27
2023-01-25T05:03:59.880Z,3.27
2023-01-25T05:06:42.486Z,3.30
2023-01-25T05:09:15.057Z,3.25
2023-01-25T05:11:46.966Z,3.18
2023-01-25T05:14:44.721Z,3.14
2023-01-25T05:17:19.658Z,3.12
2023-01-25T05:19:51.244Z,3.16
2023-01-25T05:22:26.184Z,3.09
2023-01-25T05:24:59.255Z,3.08
2023-01-25T05:27:31.096Z,3.06
2023-01-25T05:30:02.761Z,3.05
2023-01-25T05:33:00.461Z,3.08
2023-01-25T05:35:32.196Z,3.14
2023-01-25T05:38:04.486Z,2.98
2023-01-25T05:40:36.150Z,2.88
2023-01-25T05:43:08.740Z,2.89
2023-01-25T05:45:40.561Z,2.95
2023-01-25T05:48:13.283Z,2.85
2023-01-25T05:50:44.897Z,2.83
2023-01-25T05:53:26.074Z,2.81
2023-01-25T05:56:06.671Z,2.83
2023-01-25T05:58:39.664Z,2.83
2023-01-25T06:01:11.929Z,2.85
2023-01-25T06:03:52.700Z,2.91
2023-01-25T06:06:25.198Z,2.93
2023-01-25T06:08:58.135Z,2.87
2023-01-25T06:11:36.346Z,2.92
2023-01-25T06:14:10.454Z,2.96
2023-01-25T06:16:42.641Z,2.89
2023-01-25T06:19:39.387Z,2.86
2023-01-25T06:22:14.656Z,2.83
2023-01-25T06:24:46.364Z,2.83
2023-01-25T06:27:18.070Z,2.87
2023-01-25T06:29:50.472Z,2.92
2023-01-25T06:32:22.205Z,2.95
2023-01-25T06:34:55.897Z,2.91
2023-01-25T06:37:29.468Z,2.91
2023-01-25T06:40:01.252Z,2.89
2023-01-25T06:42:32.878Z,2.87
2023-01-25T06:45:04.987Z,2.91
2023-01-25T06:47:36.608Z,2.99
2023-01-25T06:50:09.848Z,2.94
2023-01-25T06:52:41.523Z,2.95
2023-01-25T06:55:14.995Z,2.96
2023-01-25T06:57:46.862Z,2.92
2023-01-25T07:00:19.488Z,2.94
2023-01-25T07:02:51.251Z,2.93
2023-01-25T07:05:25.757Z,2.96
2023-01-25T07:07:58.240Z,2.93
2023-01-25T07:10:30.434Z,2.92
2023-01-25T07:13:03.081Z,2.90
2023-01-25T07:15:34.752Z,2.82
2023-01-25T07:18:15.920Z,2.75
2023-01-25T07:20:50.705Z,2.74
2023-01-25T07:23:22.354Z,2.72
2023-01-25T07:25:54.037Z,2.69
2023-01-25T07:28:25.716Z,2.72
2023-01-25T07:31:03.757Z,2.66
2023-01-25T07:33:35.802Z,2.68
2023-01-25T07:36:10.048Z,2.69
2023-01-25T07:38:41.909Z,2.66
2023-01-25T07:41:14.695Z,2.65
2023-01-25T07:43:47.189Z,2.64
2023-01-25T07:46:25.514Z,2.63
2023-01-25T07:48:58.878Z,2.67
2023-01-25T07:51:31.162Z,2.71
2023-01-25T07:54:05.388Z,2.74
2023-01-25T07:56:38.478Z,2.77
2023-01-25T07:59:10.770Z,2.81
2023-01-25T08:01:43.671Z,2.80
2023-01-25T08:04:16.651Z,2.79
2023-01-25T08:06:48.445Z,2.83
2023-01-25T08:09:20.383Z,2.77
2023-01-25T08:11:53.692Z,2.78
2023-01-25T08:14:25.606Z,2.81
2023-01-25T08:16:57.358Z,2.80
2023-01-25T08:19:29.005Z,2.74
2023-01-25T08:22:02.927Z,2.65
2023-01-25T08:24:37.654Z,2.64
2023-01-25T08:27:09.393Z,2.66
2023-01-25T08:29:41.018Z,2.72
2023-01-25T08:32:12.815Z,2.74
2023-01-25T08:34:47.490Z,2.70
2023-01-25T08:37:20.028Z,2.71
2023-01-25T08:39:51.802Z,2.71
2023-01-25T08:42:26.595Z,2.79
2023-01-25T08:44:58.543Z,2.78
2023-01-25T08:47:30.500Z,2.87
2023-01-25T08:50:03.063Z,2.89
2023-01-25T08:52:37.591Z,2.97
2023-01-25T08:55:10.772Z,2.97
2023-01-25T08:57:42.817Z,2.97
2023-01-25T09:00:15.092Z,3.00
2023-01-25T09:02:48.443Z,2.98
2023-01-25T09:05:20.077Z,2.98
2023-01-25T09:07:51.734Z,3.00
2023-01-25T09:10:23.525Z,3.02
2023-01-25T09:12:55.515Z,3.11
2023-01-25T09:15:29.664Z,3.18
2023-01-25T09:18:01.451Z,3.11
2023-01-25T09:20:34.554Z,3.08
2023-01-25T09:23:06.542Z,3.05
2023-01-25T09:25:38.244Z,3.08
2023-01-25T09:28:11.619Z,3.03
2023-01-25T09:30:48.294Z,3.05
2023-01-25T09:33:36.742Z,3.04
2023-01-25T09:36:09.956Z,3.11
2023-01-25T09:38:41.921Z,3.16
2023-01-25T09:41:41.902Z,3.20
2023-01-25T09:44:45.303Z,3.18
2023-01-25T09:47:27.549Z,3.15
2023-01-25T09:50:17.035Z,3.15
2023-01-25T09:53:21.898Z,3.08
2023-01-25T09:56:01.316Z,3.09
2023-01-25T09:58:39.744Z,3.07
2023-01-25T10:01:38.482Z,3.04
2023-01-25T10:04:18.805Z,3.05
2023-01-25T10:07:01.306Z,2.96
2023-01-25T10:09:42.725Z,2.88
2023-01-25T10:12:25.753Z,2.88
2023-01-25T10:14:57.457Z,2.94
2023-01-25T10:17:40.705Z,3.02
2023-01-25T10:20:24.237Z,3.03
2023-01-25T10:23:40.011Z,3.00
2023-01-25T10:26:35.864Z,3.00
2023-01-25T10:29:27.542Z,3.01
2023-01-25T10:32:35.911Z,3.04
2023-01-25T10:35:34.831Z,3.01
2023-01-25T10:38:30.979Z,3.06
2023-01-25T10:41:28.818Z,3.04
2023-01-25T10:44:18.971Z,3.05
2023-01-25T10:47:11.673Z,3.08
2023-01-25T10:49:55.015Z,3.03
2023-01-25T10:52:32.268Z,3.00
2023-01-25T10:55:07.384Z,2.97
2023-01-25T10:57:44.327Z,2.98
2023-01-25T11:00:35.609Z,3.03
2023-01-25T11:03:22.582Z,3.11
2023-01-25T11:05:57.061Z,3.20
2023-01-25T11:08:38.643Z,3.28
2023-01-25T11:11:36.219Z,3.20
2023-01-25T11:14:17.627Z,3.12
2023-01-25T11:16:49.642Z,3.13
2023-01-25T11:19:43.560Z,3.23
2023-01-25T11:22:24.791Z,3.13
2023-01-25T11:24:56.538Z,3.17
2023-01-25T11:27:28.501Z,3.16
2023-01-25T11:30:06.581Z,3.14
2023-01-25T11:32:40.313Z,3.08
2023-01-25T11:35:34.515Z,3.07
2023-01-25T11:38:14.463Z,3.14
2023-01-25T11:40:51.037Z,3.20
2023-01-25T11:43:48.345Z,3.26
2023-01-25T11:47:01.757Z,3.32
2023-01-25T11:49:51.363Z,3.26
2023-01-25T11:52:46.378Z,3.29
2023-01-25T11:55:34.298Z,3.28
2023-01-25T11:59:16.710Z,3.30
2023-01-25T12:02:00.066Z,3.35
2023-01-25T12:04:50.117Z,3.33
2023-01-25T12:07:46.738Z,3.37
2023-01-25T12:10:34.578Z,3.43
2023-01-25T12:13:18.277Z,3.48
2023-01-25T12:15:58.798Z,3.51
2023-01-25T12:19:02.015Z,3.50
2023-01-25T12:21:41.481Z,3.46
2023-01-25T12:24:50.103Z,3.40
2023-01-25T12:27:48.741Z,3.46
2023-01-25T12:30:51.265Z,3.50
2023-01-25T12:33:28.191Z,3.48
2023-01-25T12:36:08.774Z,3.43
2023-01-25T12:38:53.038Z,3.38
2023-01-25T12:41:46.402Z,3.35
2023-01-25T12:44:50.314Z,3.38
2023-01-25T12:47:33.397Z,3.38
2023-01-25T12:50:23.340Z,3.42
2023-01-25T12:53:01.747Z,3.49
2023-01-25T12:55:33.693Z,3.58
2023-01-25T12:58:43.869Z,3.53
2023-01-25T13:01:46.773Z,3.49
2023-01-25T13:04:37.316Z,3.54
2023-01-25T13:07:14.775Z,3.58
2023-01-25T13:10:18.933Z,3.62
2023-01-25T13:13:03.218Z,3.54
2023-01-25T13:15:36.319Z,3.54
2023-01-25T13:18:30.138Z,3.56
2023-01-25T13:21:05.553Z,3.55
2023-01-25T13:23:43.825Z,3.50
2023-01-25T13:26:21.657Z,3.45
2023-01-25T13:28:59.649Z,3.50
2023-01-25T13:31:53.071Z,3.56
2023-01-25T13:34:40.334Z,3.57
2023-01-25T13:37:29.103Z,3.56
2023-01-25T13:40:34.470Z,3.53
2023-01-25T13:43:19.099Z,3.44
2023-01-25T13:45:53.104Z,3.42
2023-01-25T13:48:28.684Z,3.40
2023-01-25T13:51:10.898Z,3.39
2023-01-25T13:53:43.416Z,3.36
2023-01-25T13:56:30.650Z,3.36
2023-01-25T13:59:02.932Z,3.35
2023-01-25T14:01:36.969Z,3.37
2023-01-25T14:04:12.316Z,3.38
2023-01-25T14:06:45.173Z,3.39
2023-01-25T14:09:20.899Z,3.36
2023-01-25T14:11:58.468Z,3.32
2023-01-25T14:14:35.322Z,3.25
2023-01-25T14:17:09.950Z,3.18
2023-01-25T14:19:44.633Z,3.14
2023-01-25T14:22:33.426Z,3.12
2023-01-25T14:25:15.533Z,3.08
2023-01-25T14:27:59.131Z,3.11
2023-01-25T14:30:32.802Z,3.11
2023-01-25T14:33:18.436Z,3.12
2023-01-25T14:35:57.400Z,3.13
2023-01-25T14:38:36.124Z,3.14
2023-01-25T14:41:43.761Z,3.17
2023-01-25T14:44:21.267Z,3.22
2023-01-25T14:47:26.655Z,3.29
2023-01-25T14:50:30.730Z,3.33
2023-01-25T14:53:24.561Z,3.19
2023-01-25T14:55:57.429Z,3.11
2023-01-25T14:58:31.611Z,3.01
2023-01-25T15:01:03.776Z,3.00
2023-01-25T15:03:44.732Z,2.99
2023-01-25T15:06:17.007Z,3.04
2023-01-25T15:08:48.943Z,3.04
2023-01-25T15:11:38.647Z,2.99
2023-01-25T15:14:17.375Z,2.92
2023-01-25T15:16:50.698Z,2.89
2023-01-25T15:19:30.221Z,2.89
2023-01-25T15:22:01.933Z,2.80
2023-01-25T15:24:33.747Z,2.79
2023-01-25T15:27:05.457Z,2.85
2023-01-25T15:29:38.673Z,2.92
2023-01-25T15:32:20.712Z,2.89
2023-01-25T15:35:00.769Z,2.88
2023-01-25T15:37:32.511Z,2.89
2023-01-25T15:40:04.654Z,2.84
2023-01-25T15:42:39.646Z,2.81
2023-01-25T15:45:13.651Z,2.79
2023-01-25T15:47:45.804Z,2.78
2023-01-25T15:50:21.642Z,2.72
2023-01-25T15:52:53.354Z,2.57
2023-01-25T15:55:25.386Z,2.54
2023-01-25T15:57:57.808Z,2.50
2023-01-25T16:00:29.493Z,2.42
2023-01-25T16:03:01.143Z,2.35
2023-01-25T16:05:32.869Z,2.37
2023-01-25T16:08:06.526Z,2.42
2023-01-25T16:10:38.275Z,2.44
2023-01-25T16:13:10.725Z,2.50
2023-01-25T16:15:42.995Z,2.59
2023-01-25T16:18:15.200Z,2.67
2023-01-25T16:20:48.765Z,2.71
2023-01-25T16:23:20.395Z,2.70
2023-01-25T16:25:52.143Z,2.71
2023-01-25T16:28:24.547Z,2.73
2023-01-25T16:30:57.904Z,2.62
2023-01-25T16:33:29.668Z,2.60
2023-01-25T16:36:13.029Z,2.61
2023-01-25T16:38:45.060Z,2.67
2023-01-25T16:41:17.275Z,2.62
2023-01-25T16:43:49.145Z,2.57
2023-01-25T16:46:23.034Z,2.54
2023-01-25T16:48:57.835Z,2.53
2023-01-25T16:51:32.925Z,2.49
2023-01-25T16:54:04.630Z,2.47
2023-01-25T16:56:36.301Z,2.46
2023-01-25T16:59:09.427Z,2.48
2023-01-25T17:01:41.911Z,2.44
2023-01-25T17:04:15.461Z,2.42
2023-01-25T17:06:49.995Z,2.38
2023-01-25T17:09:24.988Z,2.34
2023-01-25T17:11:57.220Z,2.27
2023-01-25T17:14:28.909Z,2.28
2023-01-25T17:17:01.750Z,2.30
2023-01-25T17:19:37.287Z,2.30
2023-01-25T17:22:09.489Z,2.28
2023-01-25T17:24:41.345Z,2.31
2023-01-25T17:27:13.067Z,2.33
2023-01-25T17:29:46.433Z,2.35
2023-01-25T17:32:18.218Z,2.33
2023-01-25T17:34:50.446Z,2.34
2023-01-25T17:37:23.616Z,2.34
2023-01-25T17:39:55.476Z,2.35
2023-01-25T17:42:27.164Z,2.37
2023-01-25T17:44:58.980Z,2.40
2023-01-25T17:47:31.741Z,2.46
2023-01-25T17:50:03.998Z,2.50
2023-01-25T17:52:35.810Z,2.46
2023-01-25T17:55:10.363Z,2.44
2023-01-25T17:57:43.261Z,2.46
2023-01-25T18:00:15.521Z,2.46
2023-01-25T18:02:47.791Z,2.50
2023-01-25T18:05:19.615Z,2.53
2023-01-25T18:07:53.317Z,2.47
2023-01-25T18:10:26.407Z,2.41
2023-01-25T18:13:04.477Z,2.34
2023-01-25T18:15:39.901Z,2.28
2023-01-25T18:18:11.535Z,2.28
2023-01-25T18:20:54.849Z,2.26
2023-01-25T18:23:27.008Z,2.21
2023-01-25T18:26:00.941Z,2.19
2023-01-25T18:28:40.047Z,2.21
2023-01-25T18:31:17.787Z,2.20
2023-01-25T18:33:55.636Z,2.23
2023-01-25T18:36:30.448Z,2.23
2023-01-25T18:39:02.245Z,2.22
2023-01-25T18:41:33.997Z,2.23
2023-01-25T18:44:07.365Z,2.29
2023-01-25T18:46:43.135Z,2.34
2023-01-25T18:49:14.930Z,2.40
2023-01-25T18:52:05.203Z,2.43
2023-01-25T18:54:47.196Z,2.45
2023-01-25T18:57:21.611Z,2.47
2023-01-25T18:59:57.453Z,2.48
2023-01-25T19:02:30.924Z,2.47
2023-01-25T19:05:02.709Z,2.42
2023-01-25T19:07:34.543Z,2.36
2023-01-25T19:10:07.402Z,2.35
2023-01-25T19:12:39.124Z,2.31
2023-01-25T19:15:11.410Z,2.31
2023-01-25T19:17:46.557Z,2.31
2023-01-25T19:20:18.503Z,2.28
2023-01-25T19:22:54.204Z,2.29
2023-01-25T19:25:26.438Z,2.31
2023-01-25T19:27:59.114Z,2.27
2023-01-25T19:30:31.648Z,2.28
2023-01-25T19:33:03.534Z,2.35
2023-01-25T19:35:35.299Z,2.40
2023-01-25T19:38:07.923Z,2.39
2023-01-25T19:40:40.777Z,2.36
2023-01-25T19:43:12.984Z,2.35
2023-01-25T19:45:44.776Z,2.37
2023-01-25T19:48:16.566Z,2.27
2023-01-25T19:50:52.323Z,2.25
2023-01-25T19:53:26.134Z,2.23
2023-01-25T19:56:01.821Z,2.18
2023-01-25T19:58:34.252Z,2.10
2023-01-25T20:01:10.907Z,2.04
2023-01-25T20:03:43.251Z,1.96
2023-01-25T20:06:17.915Z,1.94
2023-01-25T20:08:49.700Z,1.94
2023-01-25T20:11:27.453Z,1.95
2023-01-25T20:14:02.222Z,1.98
2023-01-25T20:16:36.106Z,1.99
2023-01-25T20:19:07.807Z,1.97
2023-01-25T20:21:42.022Z,1.99
2023-01-25T20:24:16.769Z,1.97
2023-01-25T20:26:49.041Z,2.02
2023-01-25T20:29:21.505Z,2.04
2023-01-25T20:31:54.552Z,2.10
2023-01-25T20:34:26.889Z,2.10
2023-01-25T20:37:00.327Z,2.11
2023-01-25T20:39:31.991Z,2.14
2023-01-25T20:42:03.793Z,2.15
2023-01-25T20:44:35.518Z,2.11
2023-01-25T20:47:07.238Z,2.06
2023-01-25T20:49:41.887Z,2.01
2023-01-25T20:52:13.974Z,2.05
2023-01-25T20:54:45.676Z,2.09
2023-01-25T20:57:17.354Z,2.16
2023-01-25T20:59:49.818Z,2.20
2023-01-25T21:02:21.548Z,2.18
2023-01-25T21:04:54.012Z,2.17
2023-01-25T21:07:25.696Z,2.21
2023-01-25T21:09:57.337Z,2.23
2023-01-25T21:12:35.174Z,2.23
2023-01-25T21:15:11.016Z,2.24
2023-01-25T21:17:42.999Z,2.15
2023-01-25T21:20:15.183Z,2.15
2023-01-25T21:22:47.248Z,2.11
2023-01-25T21:25:18.961Z,2.08
2023-01-25T21:27:51.058Z,2.04
2023-01-25T21:30:25.656Z,2.06
2023-01-25T21:32:57.416Z,2.08
2023-01-25T21:35:29.566Z,2.04
2023-01-25T21:38:04.247Z,2.03
2023-01-25T21:40:38.798Z,2.06
2023-01-25T21:43:12.194Z,2.04
2023-01-25T21:46:05.019Z,2.05
2023-01-25T21:49:03.718Z,2.07
2023-01-25T21:51:35.400Z,2.12
2023-01-25T21:54:10.346Z,2.18
2023-01-25T21:56:42.735Z,2.22
2023-01-25T21:59:15.166Z,2.23
2023-01-25T22:01:47.527Z,2.22
2023-01-25T22:04:22.203Z,2.17
2023-01-25T22:06:55.112Z,2.13
2023-01-25T22:09:27.307Z,2.05
2023-01-25T22:12:01.810Z,2.06
2023-01-25T22:14:34.810Z,2.04
2023-01-25T22:17:06.509Z,2.07
2023-01-25T22:19:38.257Z,2.03
2023-01-25T22:22:12.686Z,2.02
2023-01-25T22:24:44.836Z,2.06
2023-01-25T22:27:44.839Z,2.02
2023-01-25T22:30:17.342Z,1.98
2023-01-25T22:32:49.014Z,1.95
2023-01-25T22:35:20.725Z,1.99
2023-01-25T22:37:52.424Z,2.00
2023-01-25T22:40:26.736Z,2.02
2023-01-25T22:42:58.428Z,2.02
2023-01-25T22:45:30.172Z,2.02
2023-01-25T22:48:01.839Z,2.02
2023-01-25T22:50:33.569Z,2.00
2023-01-25T22:53:06.525Z,1.96
2023-01-25T22:55:38.218Z,1.97
2023-01-25T22:58:10.708Z,2.00
2023-01-25T23:00:45.946Z,2.03
2023-01-25T23:03:17.624Z,2.06
2023-01-25T23:05:50.625Z,2.08
2023-01-25T23:08:22.281Z,2.04
2023-01-25T23:10:59.903Z,2.01
2023-01-25T23:13:31.761Z,2.01
2023-01-25T23:16:05.082Z,2.03
2023-01-25T23:18:52.115Z,2.06
2023-01-25T23:21:27.310Z,2.06
2023-01-25T23:24:01.029Z,2.10
2023-01-25T23:26:38.019Z,2.12
2023-01-25T23:29:12.672Z,2.08
2023-01-25T23:31:44.838Z,2.02
2023-01-25T23:34:19.224Z,2.02
2023-01-25T23:36:50.975Z,2.03
2023-01-25T23:39:28.682Z,1.98
2023-01-25T23:42:00.341Z,2.04
2023-01-25T23:44:34.664Z,2.05
2023-01-25T23:47:06.367Z,2.10
2023-01-25T23:49:38.138Z,2.16
2023-01-25T23:52:09.951Z,2.20
2023-01-25T23:54:41.587Z,2.22
2023-01-25T23:57:13.352Z,2.21
2023-01-25T23:59:45.039Z,2.26
